Midway, Washington
Current Conditions -  °F | °C
As of 5:53 PM on Saturday 25 Oct 2014 (Local Time) from KSEA Reporting Station
Light Rain Light Rain  
Wind Chill: 61°   Ceiling: 6000
Heat Index: 61°   Visibility: 10mi
Dew Point: 49°   Wind: 17mph
Humidity: 64%   Direction: 170°S
Pressure: 29.28"   Gusts: 28mph
Location:  47.3871°N, 122.202°W
Report Text: KSEA 260053Z 17015G24KT 10SM -RA BKN060 OVC075 16/09 A2928 RMK AO2 PK WND 15028/2354 RAB51 SLP921 P0000 T01610094
Loading
Personal Weather Stations






























Interactive Weather Map
Tropical Storm Tracking
New forecast layout! Learn more

10-Day Weather Forecast

Advertisements
Track Severe Weather on mobile